Date,TemperatureHighF,TemperatureAvgF,TemperatureLowF,DewpointHighF,DewpointAvgF,DewpointLowF,HumidityHigh,HumidityAvg,HumidityLow,PressureMaxIn,PressureMinIn,WindSpeedMaxMPH,WindSpeedAvgMPH,GustSpeedMaxMPH,PrecipitationSumIn
2013-3-1,35.2,33.3,31.6,30.1,28.7,27.3,90,83,75,29.66,29.52,11,1,11,0.06
2013-3-2,41.4,34.7,30.5,30.3,29.1,27.6,90,81,60,29.64,29.58,14,1,14,0.09
2013-3-3,42.2,37.3,30.7,32.3,28.5,25.5,90,70,62,29.60,29.51,12,1,13,0.09
2013-3-4,37.1,33.3,31.5,27.7,25.1,22.2,81,72,63,29.67,29.49,16,2,18,0.00
2013-3-5,43.4,38.8,31.5,33.0,31.1,23.1,82,74,64,30.10,29.67,16,2,16,0.00
2013-3-6,38.4,35.7,32.1,32.4,29.3,25.8,92,78,65,30.23,30.10,15,3,16,0.00
2013-3-7,35.6,33.8,31.1,26.5,24.3,23.4,79,68,62,30.19,30.06,18,5,19,0.00
2013-3-8,45.5,36.3,28.8,25.8,23.5,21.1,87,62,41,30.18,30.01,19,5,19,0.02
2013-3-9,47.7,36.4,29.9,24.9,22.7,20.3,68,58,37,30.25,30.17,15,3,18,0.00
2013-3-10,39.0,32.0,23.2,29.9,25.6,19.6,87,77,67,30.42,30.30,3,1,10,0.01
2013-3-11,41.9,39.0,33.7,37.0,33.9,29.7,88,82,71,30.30,30.13,13,2,13,0.00
2013-3-12,47.9,42.8,38.4,45.7,40.0,35.7,92,90,86,30.15,29.72,21,1,21,0.68
2013-3-13,50.0,41.8,31.0,43.4,35.9,26.5,92,80,59,29.73,29.65,11,1,16,0.02
2013-3-14,39.3,31.9,21.6,26.4,20.7,6.0,88,64,47,29.74,29.60,16,2,16,0.00
2013-3-15,34.4,26.0,17.4,20.9,11.1,5.2,71,53,38,29.80,29.58,17,2,17,0.00
2013-3-16,36.1,31.7,22.6,22.9,14.3,11.9,81,49,37,29.88,29.60,12,2,13,0.00
2013-3-17,32.8,26.1,18.3,13.9,10.1,3.9,77,52,33,30.20,29.88,20,2,20,0.00
2013-3-18,25.9,18.3,13.0,4.5,3.1,1.6,64,51,37,30.44,30.30,9,1,12,0.00
2013-3-19,32.8,28.1,23.2,28.2,24.9,19.9,90,88,61,30.26,29.65,12,1,12,0.02
2013-3-20,36.3,27.7,17.6,25.2,20.6,14.0,95,75,53,29.71,29.60,15,1,15,0.31
2013-3-21,37.1,29.2,20.5,22.7,18.8,14.4,83,66,42,29.76,29.59,11,1,11,0.22
2013-3-22,39.7,30.1,21.5,21.9,18.3,16.0,81,63,41,29.64,29.57,18,1,18,0.00
2013-3-23,40.3,32.0,23.7,22.8,19.7,15.0,76,61,45,29.65,29.49,5,2,22,0.00
2013-3-24,46.0,37.4,29.9,27.5,24.3,21.6,72,60,44,29.77,29.65,3,2,17,0.00
2013-3-25,32.9,29.2,26.9,26.1,23.5,22.0,82,79,72,29.76,29.72,3,0,6,0.00
2013-3-26,47.2,39.0,31.4,26.8,24.6,22.8,71,56,42,29.72,29.55,12,1,14,0.00
2013-3-27,48.8,36.4,28.2,35.3,29.4,22.4,89,76,47,29.85,29.70,9,1,12,0.12
2013-3-28,48.9,40.2,33.9,36.1,32.2,28.6,90,75,51,29.96,29.85,9,1,9,0.01
2013-3-29,55.1,42.2,32.7,35.7,30.9,27.6,84,66,42,30.00,29.92,13,1,14,0.00
2013-3-30,52.5,38.7,31.5,31.6,28.6,24.6,83,69,34,30.04,29.99,11,1,11,0.00
2013-3-31,47.5,38.6,25.7,38.2,27.6,19.8,78,66,38,30.10,29.84,4,1,15,0.00